sensor_id;sensor_type;location;lat;lon;timestamp;temperature;humidity
57664;DHT22;43493;53.098;6.064;2023-03-01T00:01:34;2.10;99.90
57664;DHT22;43493;53.098;6.064;2023-03-01T00:04:00;2.00;99.90
57664;DHT22;43493;53.098;6.064;2023-03-01T00:06:26;2.00;99.90
57664;DHT22;43493;53.098;6.064;2023-03-01T00:08:53;1.90;99.90
57664;DHT22;43493;53.098;6.064;2023-03-01T00:11:22;1.90;99.90
57664;DHT22;43493;53.098;6.064;2023-03-01T00:13:51;1.90;99.90
57664;DHT22;43493;53.098;6.064;2023-03-01T00:16:27;1.90;99.90
57664;DHT22;43493;53.098;6.064;2023-03-01T00:18:56;1.90;99.90
57664;DHT22;43493;53.098;6.064;2023-03-01T00:21:23;1.90;99.90
57664;DHT22;43493;53.098;6.064;2023-03-01T00:23:50;1.90;99.90
57664;DHT22;43493;53.098;6.064;2023-03-01T00:26:17;1.80;99.90
57664;DHT22;43493;53.098;6.064;2023-03-01T00:28:43;1.90;99.90
57664;DHT22;43493;53.098;6.064;2023-03-01T00:31:11;1.90;99.90
57664;DHT22;43493;53.098;6.064;2023-03-01T00:33:37;1.90;99.90
57664;DHT22;43493;53.098;6.064;2023-03-01T00:36:04;1.90;99.90
57664;DHT22;43493;53.098;6.064;2023-03-01T00:38:30;1.90;99.90
57664;DHT22;43493;53.098;6.064;2023-03-01T00:41:06;1.90;99.90
57664;DHT22;43493;53.098;6.064;2023-03-01T00:43:32;1.80;99.90
57664;DHT22;43493;53.098;6.064;2023-03-01T00:46:22;1.90;99.90
57664;DHT22;43493;53.098;6.064;2023-03-01T00:48:48;1.80;99.90
57664;DHT22;43493;53.098;6.064;2023-03-01T00:51:19;1.80;99.90
57664;DHT22;43493;53.098;6.064;2023-03-01T00:53:46;1.70;99.90
57664;DHT22;43493;53.098;6.064;2023-03-01T00:56:14;1.70;99.90
57664;DHT22;43493;53.098;6.064;2023-03-01T00:58:40;1.70;99.90
57664;DHT22;43493;53.098;6.064;2023-03-01T01:01:15;1.70;99.90
57664;DHT22;43493;53.098;6.064;2023-03-01T01:03:48;1.80;99.90
57664;DHT22;43493;53.098;6.064;2023-03-01T01:06:20;1.80;99.90
57664;DHT22;43493;53.098;6.064;2023-03-01T01:08:46;1.80;99.90
57664;DHT22;43493;53.098;6.064;2023-03-01T01:11:12;1.70;99.90
57664;DHT22;43493;53.098;6.064;2023-03-01T01:13:39;1.70;99.90
57664;DHT22;43493;53.098;6.064;2023-03-01T01:16:05;1.70;99.90
57664;DHT22;43493;53.098;6.064;2023-03-01T01:18:32;1.70;99.90
57664;DHT22;43493;53.098;6.064;2023-03-01T01:20:57;1.70;99.90
57664;DHT22;43493;53.098;6.064;2023-03-01T01:23:23;1.70;99.90
57664;DHT22;43493;53.098;6.064;2023-03-01T01:25:49;1.60;99.90
57664;DHT22;43493;53.098;6.064;2023-03-01T01:28:15;1.70;99.90
57664;DHT22;43493;53.098;6.064;2023-03-01T01:30:40;1.60;99.90
57664;DHT22;43493;53.098;6.064;2023-03-01T01:33:07;1.50;99.90
57664;DHT22;43493;53.098;6.064;2023-03-01T01:35:33;1.60;99.90
57664;DHT22;43493;53.098;6.064;2023-03-01T01:37:58;1.60;99.90
57664;DHT22;43493;53.098;6.064;2023-03-01T01:40:24;1.70;99.90
57664;DHT22;43493;53.098;6.064;2023-03-01T01:42:50;1.60;99.90
57664;DHT22;43493;53.098;6.064;2023-03-01T01:45:34;1.60;99.90
57664;DHT22;43493;53.098;6.064;2023-03-01T01:48:04;1.50;99.90
57664;DHT22;43493;53.098;6.064;2023-03-01T01:50:32;1.50;99.90
57664;DHT22;43493;53.098;6.064;2023-03-01T01:53:09;1.50;99.90
57664;DHT22;43493;53.098;6.064;2023-03-01T01:55:37;1.60;99.90
57664;DHT22;43493;53.098;6.064;2023-03-01T01:58:07;1.50;99.90
57664;DHT22;43493;53.098;6.064;2023-03-01T02:00:34;1.60;99.90
57664;DHT22;43493;53.098;6.064;2023-03-01T02:03:12;1.60;99.90
57664;DHT22;43493;53.098;6.064;2023-03-01T02:05:49;1.50;99.90
57664;DHT22;43493;53.098;6.064;2023-03-01T02:08:19;1.40;99.90
57664;DHT22;43493;53.098;6.064;2023-03-01T02:10:46;1.30;99.90
57664;DHT22;43493;53.098;6.064;2023-03-01T02:13:13;1.30;99.90
57664;DHT22;43493;53.098;6.064;2023-03-01T02:15:40;1.40;99.90
57664;DHT22;43493;53.098;6.064;2023-03-01T02:18:07;1.20;99.90
57664;DHT22;43493;53.098;6.064;2023-03-01T02:20:55;1.20;99.90
57664;DHT22;43493;53.098;6.064;2023-03-01T02:23:24;1.10;99.90
57664;DHT22;43493;53.098;6.064;2023-03-01T02:26:33;1.10;99.90
57664;DHT22;43493;53.098;6.064;2023-03-01T02:29:00;1.00;99.90
57664;DHT22;43493;53.098;6.064;2023-03-01T02:31:26;1.10;99.90
57664;DHT22;43493;53.098;6.064;2023-03-01T02:34:10;1.10;99.90
57664;DHT22;43493;53.098;6.064;2023-03-01T02:36:47;1.00;99.90
57664;DHT22;43493;53.098;6.064;2023-03-01T02:39:39;1.10;99.90
57664;DHT22;43493;53.098;6.064;2023-03-01T02:42:11;1.00;99.90
57664;DHT22;43493;53.098;6.064;2023-03-01T02:44:38;1.00;99.90
57664;DHT22;43493;53.098;6.064;2023-03-01T02:47:04;1.10;99.90
57664;DHT22;43493;53.098;6.064;2023-03-01T02:49:33;1.10;99.90
57664;DHT22;43493;53.098;6.064;2023-03-01T02:57:18;0.90;99.90
57664;DHT22;43493;53.098;6.064;2023-03-01T02:59:44;1.00;99.90
57664;DHT22;43493;53.098;6.064;2023-03-01T03:02:24;0.90;99.90
57664;DHT22;43493;53.098;6.064;2023-03-01T03:05:08;0.90;99.90
57664;DHT22;43493;53.098;6.064;2023-03-01T03:07:36;0.90;99.90
57664;DHT22;43493;53.098;6.064;2023-03-01T03:10:04;0.90;99.90
57664;DHT22;43493;53.098;6.064;2023-03-01T03:12:30;0.90;99.90
57664;DHT22;43493;53.098;6.064;2023-03-01T03:14:55;0.90;99.90
57664;DHT22;43493;53.098;6.064;2023-03-01T03:17:21;1.00;99.90
57664;DHT22;43493;53.098;6.064;2023-03-01T03:19:47;1.00;99.90
57664;DHT22;43493;53.098;6.064;2023-03-01T03:22:13;1.00;99.90
57664;DHT22;43493;53.098;6.064;2023-03-01T03:24:39;0.90;99.90
57664;DHT22;43493;53.098;6.064;2023-03-01T03:27:05;0.90;99.90
57664;DHT22;43493;53.098;6.064;2023-03-01T03:29:31;1.00;99.90
57664;DHT22;43493;53.098;6.064;2023-03-01T03:31:57;0.90;99.90
57664;DHT22;43493;53.098;6.064;2023-03-01T03:34:23;0.90;99.90
57664;DHT22;43493;53.098;6.064;2023-03-01T03:36:53;1.00;99.90
57664;DHT22;43493;53.098;6.064;2023-03-01T03:39:25;0.90;99.90
57664;DHT22;43493;53.098;6.064;2023-03-01T03:41:51;0.90;99.90
57664;DHT22;43493;53.098;6.064;2023-03-01T03:44:16;0.90;99.90
57664;DHT22;43493;53.098;6.064;2023-03-01T03:46:42;0.90;99.90
57664;DHT22;43493;53.098;6.064;2023-03-01T03:49:08;0.80;99.90
57664;DHT22;43493;53.098;6.064;2023-03-01T03:51:33;0.80;99.90
57664;DHT22;43493;53.098;6.064;2023-03-01T03:53:59;0.80;99.90
57664;DHT22;43493;53.098;6.064;2023-03-01T03:56:25;0.80;99.90
57664;DHT22;43493;53.098;6.064;2023-03-01T03:58:52;0.90;99.90
57664;DHT22;43493;53.098;6.064;2023-03-01T04:01:17;0.70;99.90
57664;DHT22;43493;53.098;6.064;2023-03-01T04:03:43;0.60;99.90
57664;DHT22;43493;53.098;6.064;2023-03-01T04:06:13;0.30;99.90
57664;DHT22;43493;53.098;6.064;2023-03-01T04:08:40;0.20;99.90
57664;DHT22;43493;53.098;6.064;2023-03-01T04:11:06;0.20;99.90
57664;DHT22;43493;53.098;6.064;2023-03-01T04:13:53;0.10;99.90
57664;DHT22;43493;53.098;6.064;2023-03-01T04:16:19;0.00;99.90
57664;DHT22;43493;53.098;6.064;2023-03-01T04:18:46;0.00;99.90
57664;DHT22;43493;53.098;6.064;2023-03-01T04:21:12;0.00;99.90
57664;DHT22;43493;53.098;6.064;2023-03-01T04:23:38;0.00;99.90
57664;DHT22;43493;53.098;6.064;2023-03-01T04:26:04;0.10;99.90
57664;DHT22;43493;53.098;6.064;2023-03-01T04:28:42;0.10;99.90
57664;DHT22;43493;53.098;6.064;2023-03-01T04:31:15;0.00;99.90
57664;DHT22;43493;53.098;6.064;2023-03-01T04:33:43;0.00;99.90
57664;DHT22;43493;53.098;6.064;2023-03-01T04:36:10;0.00;99.90
57664;DHT22;43493;53.098;6.064;2023-03-01T04:38:37;0.00;99.90
57664;DHT22;43493;53.098;6.064;2023-03-01T04:41:09;0.00;99.90
57664;DHT22;43493;53.098;6.064;2023-03-01T04:43:35;0.00;99.90
57664;DHT22;43493;53.098;6.064;2023-03-01T04:46:03;0.10;99.90
57664;DHT22;43493;53.098;6.064;2023-03-01T04:48:30;0.10;99.90
57664;DHT22;43493;53.098;6.064;2023-03-01T04:50:57;0.30;99.90
57664;DHT22;43493;53.098;6.064;2023-03-01T04:53:23;0.30;99.90
57664;DHT22;43493;53.098;6.064;2023-03-01T04:55:50;0.20;99.90
57664;DHT22;43493;53.098;6.064;2023-03-01T04:58:16;0.20;99.90
57664;DHT22;43493;53.098;6.064;2023-03-01T05:00:42;0.10;99.90
57664;DHT22;43493;53.098;6.064;2023-03-01T05:03:08;0.00;99.90
57664;DHT22;43493;53.098;6.064;2023-03-01T05:05:36;-0.10;99.90
57664;DHT22;43493;53.098;6.064;2023-03-01T05:08:06;-0.10;99.90
57664;DHT22;43493;53.098;6.064;2023-03-01T05:10:33;-0.20;99.90
57664;DHT22;43493;53.098;6.064;2023-03-01T05:13:01;-0.20;99.90
57664;DHT22;43493;53.098;6.064;2023-03-01T05:15:29;-0.30;99.90
57664;DHT22;43493;53.098;6.064;2023-03-01T05:17:56;-0.30;99.90
57664;DHT22;43493;53.098;6.064;2023-03-01T05:20:24;-0.40;99.90
57664;DHT22;43493;53.098;6.064;2023-03-01T05:22:51;-0.30;99.90
57664;DHT22;43493;53.098;6.064;2023-03-01T05:25:18;-0.30;99.90
57664;DHT22;43493;53.098;6.064;2023-03-01T05:27:43;-0.30;99.90
57664;DHT22;43493;53.098;6.064;2023-03-01T05:30:10;-0.50;99.90
57664;DHT22;43493;53.098;6.064;2023-03-01T05:32:41;-0.50;99.90
57664;DHT22;43493;53.098;6.064;2023-03-01T05:35:08;-0.50;99.90
57664;DHT22;43493;53.098;6.064;2023-03-01T05:37:34;-0.40;99.90
57664;DHT22;43493;53.098;6.064;2023-03-01T05:40:01;-0.40;99.90
57664;DHT22;43493;53.098;6.064;2023-03-01T05:42:27;-0.30;99.90
57664;DHT22;43493;53.098;6.064;2023-03-01T05:44:52;-0.20;99.90
57664;DHT22;43493;53.098;6.064;2023-03-01T05:47:18;-0.30;99.90
57664;DHT22;43493;53.098;6.064;2023-03-01T05:49:44;-0.20;99.90
57664;DHT22;43493;53.098;6.064;2023-03-01T05:52:09;-0.20;99.90
57664;DHT22;43493;53.098;6.064;2023-03-01T05:54:35;-0.30;99.90
57664;DHT22;43493;53.098;6.064;2023-03-01T05:57:01;-0.20;99.90
57664;DHT22;43493;53.098;6.064;2023-03-01T05:59:27;-0.20;99.90
57664;DHT22;43493;53.098;6.064;2023-03-01T06:01:52;-0.10;99.90
57664;DHT22;43493;53.098;6.064;2023-03-01T06:04:18;0.00;99.90
57664;DHT22;43493;53.098;6.064;2023-03-01T06:06:44;0.00;99.90
57664;DHT22;43493;53.098;6.064;2023-03-01T06:09:10;0.00;99.90
57664;DHT22;43493;53.098;6.064;2023-03-01T06:11:36;0.00;99.90
57664;DHT22;43493;53.098;6.064;2023-03-01T06:14:02;0.00;99.90
57664;DHT22;43493;53.098;6.064;2023-03-01T06:16:28;-0.10;99.90
57664;DHT22;43493;53.098;6.064;2023-03-01T06:18:54;-0.10;99.90
57664;DHT22;43493;53.098;6.064;2023-03-01T06:21:19;-0.10;99.90
57664;DHT22;43493;53.098;6.064;2023-03-01T06:23:45;0.00;99.90
57664;DHT22;43493;53.098;6.064;2023-03-01T06:26:11;0.00;99.90
57664;DHT22;43493;53.098;6.064;2023-03-01T06:28:37;0.00;99.90
57664;DHT22;43493;53.098;6.064;2023-03-01T06:31:03;0.00;99.90
57664;DHT22;43493;53.098;6.064;2023-03-01T06:33:28;-0.10;99.90
57664;DHT22;43493;53.098;6.064;2023-03-01T06:35:55;0.00;99.90
57664;DHT22;43493;53.098;6.064;2023-03-01T06:38:22;-0.10;99.90
57664;DHT22;43493;53.098;6.064;2023-03-01T06:40:55;0.00;99.90
57664;DHT22;43493;53.098;6.064;2023-03-01T06:43:22;-0.10;99.90
57664;DHT22;43493;53.098;6.064;2023-03-01T06:45:49;-0.10;99.90
57664;DHT22;43493;53.098;6.064;2023-03-01T06:48:15;0.00;99.90
57664;DHT22;43493;53.098;6.064;2023-03-01T06:50:40;0.00;99.90
57664;DHT22;43493;53.098;6.064;2023-03-01T06:53:06;0.00;99.90
57664;DHT22;43493;53.098;6.064;2023-03-01T06:55:32;0.00;99.90
57664;DHT22;43493;53.098;6.064;2023-03-01T06:57:59;0.00;99.90
57664;DHT22;43493;53.098;6.064;2023-03-01T07:00:26;0.00;99.90
57664;DHT22;43493;53.098;6.064;2023-03-01T07:02:51;0.00;99.90
57664;DHT22;43493;53.098;6.064;2023-03-01T07:05:17;0.10;99.90
57664;DHT22;43493;53.098;6.064;2023-03-01T07:07:43;0.00;99.90
57664;DHT22;43493;53.098;6.064;2023-03-01T07:10:09;0.10;99.90
57664;DHT22;43493;53.098;6.064;2023-03-01T07:12:36;0.10;99.90
57664;DHT22;43493;53.098;6.064;2023-03-01T07:15:02;0.10;99.90
57664;DHT22;43493;53.098;6.064;2023-03-01T07:17:28;0.10;99.90
57664;DHT22;43493;53.098;6.064;2023-03-01T07:19:53;0.10;99.90
57664;DHT22;43493;53.098;6.064;2023-03-01T07:22:19;0.10;99.90
57664;DHT22;43493;53.098;6.064;2023-03-01T07:24:45;0.20;99.90
57664;DHT22;43493;53.098;6.064;2023-03-01T07:27:10;0.20;99.90
57664;DHT22;43493;53.098;6.064;2023-03-01T07:29:36;0.20;99.90
57664;DHT22;43493;53.098;6.064;2023-03-01T07:32:03;0.20;99.90
57664;DHT22;43493;53.098;6.064;2023-03-01T07:34:29;0.20;99.90
57664;DHT22;43493;53.098;6.064;2023-03-01T07:36:55;0.20;99.90
57664;DHT22;43493;53.098;6.064;2023-03-01T07:39:20;0.30;99.90
57664;DHT22;43493;53.098;6.064;2023-03-01T07:41:48;0.30;99.90
57664;DHT22;43493;53.098;6.064;2023-03-01T07:44:14;0.40;99.90
57664;DHT22;43493;53.098;6.064;2023-03-01T07:46:40;0.50;99.90
57664;DHT22;43493;53.098;6.064;2023-03-01T07:49:06;0.60;99.90
57664;DHT22;43493;53.098;6.064;2023-03-01T07:51:32;0.70;99.90
57664;DHT22;43493;53.098;6.064;2023-03-01T07:53:58;0.80;99.90
57664;DHT22;43493;53.098;6.064;2023-03-01T07:56:23;0.90;99.90
57664;DHT22;43493;53.098;6.064;2023-03-01T07:58:49;1.00;99.90
57664;DHT22;43493;53.098;6.064;2023-03-01T08:01:17;1.20;99.90
57664;DHT22;43493;53.098;6.064;2023-03-01T08:03:43;1.40;99.90
57664;DHT22;43493;53.098;6.064;2023-03-01T08:06:10;1.50;99.90
57664;DHT22;43493;53.098;6.064;2023-03-01T08:08:37;1.70;99.90
57664;DHT22;43493;53.098;6.064;2023-03-01T08:11:04;1.80;99.90
57664;DHT22;43493;53.098;6.064;2023-03-01T08:13:31;1.90;99.90
57664;DHT22;43493;53.098;6.064;2023-03-01T08:16:05;2.00;99.90
57664;DHT22;43493;53.098;6.064;2023-03-01T08:18:31;2.10;99.90
57664;DHT22;43493;53.098;6.064;2023-03-01T08:21:12;2.10;99.90
57664;DHT22;43493;53.098;6.064;2023-03-01T08:23:38;2.20;99.90
57664;DHT22;43493;53.098;6.064;2023-03-01T08:26:13;2.30;99.90
57664;DHT22;43493;53.098;6.064;2023-03-01T08:28:40;2.30;99.90
57664;DHT22;43493;53.098;6.064;2023-03-01T08:33:57;2.50;99.90
57664;DHT22;43493;53.098;6.064;2023-03-01T08:36:46;2.50;99.90
57664;DHT22;43493;53.098;6.064;2023-03-01T08:39:12;2.50;99.90
57664;DHT22;43493;53.098;6.064;2023-03-01T08:41:38;2.50;99.90
57664;DHT22;43493;53.098;6.064;2023-03-01T08:44:05;2.60;99.90
57664;DHT22;43493;53.098;6.064;2023-03-01T08:46:40;2.60;99.90
57664;DHT22;43493;53.098;6.064;2023-03-01T08:49:06;2.60;99.90
57664;DHT22;43493;53.098;6.064;2023-03-01T08:51:34;2.60;99.90
57664;DHT22;43493;53.098;6.064;2023-03-01T08:54:07;2.70;99.90
57664;DHT22;43493;53.098;6.064;2023-03-01T08:56:33;2.70;99.90
57664;DHT22;43493;53.098;6.064;2023-03-01T08:58:59;2.70;99.90
57664;DHT22;43493;53.098;6.064;2023-03-01T09:01:25;2.70;99.90
57664;DHT22;43493;53.098;6.064;2023-03-01T09:03:51;2.80;99.90
57664;DHT22;43493;53.098;6.064;2023-03-01T09:06:17;2.80;99.90
57664;DHT22;43493;53.098;6.064;2023-03-01T09:08:45;2.90;99.90
57664;DHT22;43493;53.098;6.064;2023-03-01T09:11:14;3.00;99.90
57664;DHT22;43493;53.098;6.064;2023-03-01T09:13:43;3.00;99.90
57664;DHT22;43493;53.098;6.064;2023-03-01T09:16:12;3.10;99.90
57664;DHT22;43493;53.098;6.064;2023-03-01T09:18:38;3.10;99.90
57664;DHT22;43493;53.098;6.064;2023-03-01T09:23:44;3.20;99.90
57664;DHT22;43493;53.098;6.064;2023-03-01T09:26:19;3.30;99.90
57664;DHT22;43493;53.098;6.064;2023-03-01T09:28:46;3.40;99.90
57664;DHT22;43493;53.098;6.064;2023-03-01T09:31:12;3.50;99.90
57664;DHT22;43493;53.098;6.064;2023-03-01T09:33:39;3.50;99.90
57664;DHT22;43493;53.098;6.064;2023-03-01T09:36:14;3.50;99.90
57664;DHT22;43493;53.098;6.064;2023-03-01T09:38:40;3.60;99.90
57664;DHT22;43493;53.098;6.064;2023-03-01T09:43:55;3.70;99.90
57664;DHT22;43493;53.098;6.064;2023-03-01T09:46:25;3.70;99.90
57664;DHT22;43493;53.098;6.064;2023-03-01T09:48:57;3.70;99.90
57664;DHT22;43493;53.098;6.064;2023-03-01T09:51:31;3.80;99.90
57664;DHT22;43493;53.098;6.064;2023-03-01T09:53:57;3.90;99.90
57664;DHT22;43493;53.098;6.064;2023-03-01T09:56:41;3.90;99.90
57664;DHT22;43493;53.098;6.064;2023-03-01T10:02:01;4.10;99.90
57664;DHT22;43493;53.098;6.064;2023-03-01T10:04:51;4.20;99.90
57664;DHT22;43493;53.098;6.064;2023-03-01T10:07:52;4.20;99.90
57664;DHT22;43493;53.098;6.064;2023-03-01T10:10:29;4.30;99.90
57664;DHT22;43493;53.098;6.064;2023-03-01T10:12:57;4.40;99.90
57664;DHT22;43493;53.098;6.064;2023-03-01T10:15:40;4.50;99.90
57664;DHT22;43493;53.098;6.064;2023-03-01T10:18:12;4.60;99.90
57664;DHT22;43493;53.098;6.064;2023-03-01T10:20:50;4.70;99.90
57664;DHT22;43493;53.098;6.064;2023-03-01T10:23:17;4.80;99.90
57664;DHT22;43493;53.098;6.064;2023-03-01T10:28:29;4.90;99.90
57664;DHT22;43493;53.098;6.064;2023-03-01T10:30:58;4.90;99.90
57664;DHT22;43493;53.098;6.064;2023-03-01T10:33:27;5.00;99.90
57664;DHT22;43493;53.098;6.064;2023-03-01T10:35:55;5.00;99.90
57664;DHT22;43493;53.098;6.064;2023-03-01T10:38:20;5.10;99.90
57664;DHT22;43493;53.098;6.064;2023-03-01T10:40:52;5.20;99.90
57664;DHT22;43493;53.098;6.064;2023-03-01T10:43:19;5.20;99.90
57664;DHT22;43493;53.098;6.064;2023-03-01T10:45:45;5.30;99.90
57664;DHT22;43493;53.098;6.064;2023-03-01T10:48:26;5.40;99.90
57664;DHT22;43493;53.098;6.064;2023-03-01T10:53:33;5.40;99.90
57664;DHT22;43493;53.098;6.064;2023-03-01T10:56:17;5.40;99.90
57664;DHT22;43493;53.098;6.064;2023-03-01T10:59:19;5.50;99.90
57664;DHT22;43493;53.098;6.064;2023-03-01T11:02:23;5.50;99.90
57664;DHT22;43493;53.098;6.064;2023-03-01T11:08:07;5.60;99.90
57664;DHT22;43493;53.098;6.064;2023-03-01T11:10:36;5.70;99.90
57664;DHT22;43493;53.098;6.064;2023-03-01T11:13:20;5.70;99.90
57664;DHT22;43493;53.098;6.064;2023-03-01T11:16:00;5.80;99.90
57664;DHT22;43493;53.098;6.064;2023-03-01T11:18:29;5.80;99.90
57664;DHT22;43493;53.098;6.064;2023-03-01T11:20:56;5.80;99.90
57664;DHT22;43493;53.098;6.064;2023-03-01T11:23:24;5.90;99.90
57664;DHT22;43493;53.098;6.064;2023-03-01T11:25:56;5.90;99.90
57664;DHT22;43493;53.098;6.064;2023-03-01T11:28:25;5.90;99.90
57664;DHT22;43493;53.098;6.064;2023-03-01T11:31:10;5.90;99.90
57664;DHT22;43493;53.098;6.064;2023-03-01T11:33:51;6.00;99.90
57664;DHT22;43493;53.098;6.064;2023-03-01T11:36:35;6.10;99.90
57664;DHT22;43493;53.098;6.064;2023-03-01T11:42:13;6.20;99.90
57664;DHT22;43493;53.098;6.064;2023-03-01T11:44:43;6.30;99.90
57664;DHT22;43493;53.098;6.064;2023-03-01T11:50:13;6.40;99.90
57664;DHT22;43493;53.098;6.064;2023-03-01T11:52:59;6.40;99.90
57664;DHT22;43493;53.098;6.064;2023-03-01T11:58:40;6.40;99.90
57664;DHT22;43493;53.098;6.064;2023-03-01T12:06:56;6.50;99.90
57664;DHT22;43493;53.098;6.064;2023-03-01T12:09:55;6.60;99.90
57664;DHT22;43493;53.098;6.064;2023-03-01T12:15:22;6.60;99.90
57664;DHT22;43493;53.098;6.064;2023-03-01T12:18:13;6.60;99.90
57664;DHT22;43493;53.098;6.064;2023-03-01T12:24:09;6.60;99.90
57664;DHT22;43493;53.098;6.064;2023-03-01T12:27:49;6.60;99.90
57664;DHT22;43493;53.098;6.064;2023-03-01T12:29:59;6.60;99.90
57664;DHT22;43493;53.098;6.064;2023-03-01T12:49:28;6.70;99.90
57664;DHT22;43493;53.098;6.064;2023-03-01T12:54:37;6.80;99.90
57664;DHT22;43493;53.098;6.064;2023-03-01T12:59:39;7.00;99.90
57664;DHT22;43493;53.098;6.064;2023-03-01T13:02:24;7.10;99.90
57664;DHT22;43493;53.098;6.064;2023-03-01T13:10:56;7.20;99.90
57664;DHT22;43493;53.098;6.064;2023-03-01T13:13:25;7.10;99.90
57664;DHT22;43493;53.098;6.064;2023-03-01T13:15:52;7.10;99.90
57664;DHT22;43493;53.098;6.064;2023-03-01T13:20:47;7.20;99.90
57664;DHT22;43493;53.098;6.064;2023-03-01T13:28:41;7.20;99.40
57664;DHT22;43493;53.098;6.064;2023-03-01T13:33:52;7.20;99.40
57664;DHT22;43493;53.098;6.064;2023-03-01T13:44:35;7.20;99.50
57664;DHT22;43493;53.098;6.064;2023-03-01T13:52:40;7.20;99.90
57664;DHT22;43493;53.098;6.064;2023-03-01T13:57:43;7.20;99.90
57664;DHT22;43493;53.098;6.064;2023-03-01T14:00:32;7.20;99.90
57664;DHT22;43493;53.098;6.064;2023-03-01T14:05:31;7.30;99.90
57664;DHT22;43493;53.098;6.064;2023-03-01T14:07:57;7.40;99.90
57664;DHT22;43493;53.098;6.064;2023-03-01T14:10:28;7.40;99.90
57664;DHT22;43493;53.098;6.064;2023-03-01T14:16:14;7.40;99.90
57664;DHT22;43493;53.098;6.064;2023-03-01T14:19:04;7.40;99.90
57664;DHT22;43493;53.098;6.064;2023-03-01T14:21:31;7.50;99.90
57664;DHT22;43493;53.098;6.064;2023-03-01T14:23:57;7.50;99.90
57664;DHT22;43493;53.098;6.064;2023-03-01T14:26:24;7.50;99.90
57664;DHT22;43493;53.098;6.064;2023-03-01T14:28:50;7.50;99.90
57664;DHT22;43493;53.098;6.064;2023-03-01T14:31:32;7.50;99.90
57664;DHT22;43493;53.098;6.064;2023-03-01T14:33:59;7.50;99.90
57664;DHT22;43493;53.098;6.064;2023-03-01T14:36:27;7.50;99.90
57664;DHT22;43493;53.098;6.064;2023-03-01T14:38:53;7.50;99.90
57664;DHT22;43493;53.098;6.064;2023-03-01T14:41:25;7.40;99.90
57664;DHT22;43493;53.098;6.064;2023-03-01T14:43:55;7.40;99.90
57664;DHT22;43493;53.098;6.064;2023-03-01T14:46:37;7.40;99.90
57664;DHT22;43493;53.098;6.064;2023-03-01T14:49:20;7.50;99.90
57664;DHT22;43493;53.098;6.064;2023-03-01T14:52:01;7.50;99.90
57664;DHT22;43493;53.098;6.064;2023-03-01T14:54:40;7.50;99.90
57664;DHT22;43493;53.098;6.064;2023-03-01T14:57:24;7.40;99.90
57664;DHT22;43493;53.098;6.064;2023-03-01T14:59:53;7.40;99.90
57664;DHT22;43493;53.098;6.064;2023-03-01T15:02:23;7.40;99.90
57664;DHT22;43493;53.098;6.064;2023-03-01T15:04:52;7.40;99.90
57664;DHT22;43493;53.098;6.064;2023-03-01T15:07:24;7.50;99.90
57664;DHT22;43493;53.098;6.064;2023-03-01T15:09:52;7.50;99.90
57664;DHT22;43493;53.098;6.064;2023-03-01T15:14:57;7.60;99.90
57664;DHT22;43493;53.098;6.064;2023-03-01T15:17:33;7.50;99.90
57664;DHT22;43493;53.098;6.064;2023-03-01T15:20:02;7.50;99.90
57664;DHT22;43493;53.098;6.064;2023-03-01T15:22:29;7.50;99.90
57664;DHT22;43493;53.098;6.064;2023-03-01T15:24:55;7.50;99.90
57664;DHT22;43493;53.098;6.064;2023-03-01T15:27:23;7.40;99.90
57664;DHT22;43493;53.098;6.064;2023-03-01T15:29:59;7.40;99.90
57664;DHT22;43493;53.098;6.064;2023-03-01T15:32:34;7.40;99.90
57664;DHT22;43493;53.098;6.064;2023-03-01T15:35:41;7.40;99.90
57664;DHT22;43493;53.098;6.064;2023-03-01T15:38:30;7.40;99.90
57664;DHT22;43493;53.098;6.064;2023-03-01T15:40:59;7.40;99.90
57664;DHT22;43493;53.098;6.064;2023-03-01T15:43:41;7.30;99.90
57664;DHT22;43493;53.098;6.064;2023-03-01T15:46:29;7.30;99.90
57664;DHT22;43493;53.098;6.064;2023-03-01T15:48:59;7.30;99.90
57664;DHT22;43493;53.098;6.064;2023-03-01T15:51:34;7.30;99.90
57664;DHT22;43493;53.098;6.064;2023-03-01T15:54:04;7.30;99.90
57664;DHT22;43493;53.098;6.064;2023-03-01T15:56:30;7.40;99.90
57664;DHT22;43493;53.098;6.064;2023-03-01T15:59:01;7.30;99.90
57664;DHT22;43493;53.098;6.064;2023-03-01T16:01:27;7.30;99.90
57664;DHT22;43493;53.098;6.064;2023-03-01T16:03:53;7.30;99.90
57664;DHT22;43493;53.098;6.064;2023-03-01T16:06:19;7.40;99.90
57664;DHT22;43493;53.098;6.064;2023-03-01T16:08:45;7.30;99.90
57664;DHT22;43493;53.098;6.064;2023-03-01T16:11:17;7.40;99.90
57664;DHT22;43493;53.098;6.064;2023-03-01T16:13:43;7.30;99.90
57664;DHT22;43493;53.098;6.064;2023-03-01T16:16:13;7.30;99.90
57664;DHT22;43493;53.098;6.064;2023-03-01T16:18:45;7.30;99.90
57664;DHT22;43493;53.098;6.064;2023-03-01T16:21:24;7.20;99.90
57664;DHT22;43493;53.098;6.064;2023-03-01T16:23:51;7.20;99.90
57664;DHT22;43493;53.098;6.064;2023-03-01T16:26:17;7.20;99.90
57664;DHT22;43493;53.098;6.064;2023-03-01T16:28:45;7.20;99.90
57664;DHT22;43493;53.098;6.064;2023-03-01T16:31:11;7.10;99.90
57664;DHT22;43493;53.098;6.064;2023-03-01T16:33:39;7.10;99.90
57664;DHT22;43493;53.098;6.064;2023-03-01T16:36:10;7.00;99.90
57664;DHT22;43493;53.098;6.064;2023-03-01T16:38:37;7.00;99.90
57664;DHT22;43493;53.098;6.064;2023-03-01T16:41:04;6.90;99.90
57664;DHT22;43493;53.098;6.064;2023-03-01T16:43:30;6.90;99.90
57664;DHT22;43493;53.098;6.064;2023-03-01T16:45:57;6.80;99.90
57664;DHT22;43493;53.098;6.064;2023-03-01T16:48:24;6.80;99.90
57664;DHT22;43493;53.098;6.064;2023-03-01T16:50:58;6.80;99.90
57664;DHT22;43493;53.098;6.064;2023-03-01T16:53:24;6.70;99.90
57664;DHT22;43493;53.098;6.064;2023-03-01T16:55:57;6.70;99.90
57664;DHT22;43493;53.098;6.064;2023-03-01T16:58:23;6.70;99.90
57664;DHT22;43493;53.098;6.064;2023-03-01T17:00:53;6.60;99.90
57664;DHT22;43493;53.098;6.064;2023-03-01T17:03:23;6.60;99.90
57664;DHT22;43493;53.098;6.064;2023-03-01T17:05:50;6.60;99.90
57664;DHT22;43493;53.098;6.064;2023-03-01T17:08:16;6.60;99.90
57664;DHT22;43493;53.098;6.064;2023-03-01T17:10:42;6.50;99.90
57664;DHT22;43493;53.098;6.064;2023-03-01T17:13:09;6.40;99.90
57664;DHT22;43493;53.098;6.064;2023-03-01T17:15:38;6.40;99.90
57664;DHT22;43493;53.098;6.064;2023-03-01T17:18:05;6.30;99.90
57664;DHT22;43493;53.098;6.064;2023-03-01T17:20:31;6.20;99.90
57664;DHT22;43493;53.098;6.064;2023-03-01T17:22:56;6.20;99.90
57664;DHT22;43493;53.098;6.064;2023-03-01T17:25:23;6.10;99.90
57664;DHT22;43493;53.098;6.064;2023-03-01T17:27:49;6.00;99.90
57664;DHT22;43493;53.098;6.064;2023-03-01T17:30:16;6.00;99.90
57664;DHT22;43493;53.098;6.064;2023-03-01T17:32:42;5.90;99.90
57664;DHT22;43493;53.098;6.064;2023-03-01T17:35:08;5.80;99.90
57664;DHT22;43493;53.098;6.064;2023-03-01T17:37:36;5.80;99.90
57664;DHT22;43493;53.098;6.064;2023-03-01T17:40:05;5.80;99.90
57664;DHT22;43493;53.098;6.064;2023-03-01T17:42:31;5.70;99.90
57664;DHT22;43493;53.098;6.064;2023-03-01T17:44:57;5.60;99.90
57664;DHT22;43493;53.098;6.064;2023-03-01T17:47:23;5.60;99.90
57664;DHT22;43493;53.098;6.064;2023-03-01T17:49:49;5.50;99.90
57664;DHT22;43493;53.098;6.064;2023-03-01T17:52:15;5.50;99.90